Time;durP1;ratioP1;P1;durP2;ratioP2;P2;SDS_P1;SDS_P2;PMS_P1;PMS_P2;Temp;Humidity;BMP_temperature;BMP_pressure;BME280_temperature;BME280_humidity;BME280_pressure;Samples;Min_cycle;Max_cycle;Signal;HPM_P1;HPM_P2
2021/09/23 00:01:16;;;;;;;12.40;10.43;;;12.90;99.90;;;;;;4961020;28;20446;-44
2021/09/23 00:06:31;;;;;;;14.25;9.43;;;12.90;99.90;;;;;;4926806;29;20082;-46
2021/09/23 00:08:56;;;;;;;12.77;9.73;;;12.80;99.90;;;;;;4955020;29;20066;-44
2021/09/23 00:11:22;;;;;;;10.55;8.10;;;12.80;99.90;;;;;;4954965;29;20032;-44
2021/09/23 00:13:48;;;;;;;14.23;10.13;;;12.70;99.90;;;;;;4954765;29;20435;-47
2021/09/23 00:16:14;;;;;;;12.32;8.60;;;12.70;99.90;;;;;;4954820;29;20027;-49
2021/09/23 00:18:39;;;;;;;13.60;10.38;;;12.70;99.90;;;;;;4907061;29;20044;-44
2021/09/23 00:21:06;;;;;;;12.70;10.27;;;12.70;99.90;;;;;;4952934;29;20518;-48
2021/09/23 00:23:33;;;;;;;12.88;9.43;;;12.70;99.90;;;;;;4935615;29;20048;-45
2021/09/23 00:25:59;;;;;;;10.93;9.25;;;12.60;99.90;;;;;;4935444;29;20144;-44
2021/09/23 00:28:27;;;;;;;15.43;10.63;;;12.70;99.90;;;;;;4935774;29;20119;-46
2021/09/23 00:30:53;;;;;;;13.10;9.85;;;12.60;99.90;;;;;;4935324;29;20043;-46
2021/09/23 00:33:19;;;;;;;13.13;9.68;;;12.70;99.90;;;;;;4903819;29;20039;-43
2021/09/23 00:35:44;;;;;;;12.88;9.93;;;12.70;99.90;;;;;;4935117;29;20047;-46
2021/09/23 00:38:10;;;;;;;14.55;10.55;;;12.70;99.90;;;;;;4919491;29;20067;-48
2021/09/23 00:40:36;;;;;;;13.60;9.77;;;12.60;99.90;;;;;;4935237;29;20110;-45
2021/09/23 00:43:05;;;;;;;13.20;10.27;;;12.70;99.90;;;;;;4953515;28;20041;-47
2021/09/23 00:45:31;;;;;;;12.70;9.68;;;12.80;99.90;;;;;;4995002;28;20038;-48
2021/09/23 00:47:57;;;;;;;13.40;10.63;;;12.90;99.90;;;;;;4994918;28;20034;-48
2021/09/23 00:50:23;;;;;;;14.13;10.93;;;12.90;99.90;;;;;;4995063;28;20606;-46
2021/09/23 00:52:49;;;;;;;12.30;10.10;;;12.90;99.90;;;;;;4993234;28;20034;-44
2021/09/23 00:55:17;;;;;;;15.68;10.48;;;12.90;99.90;;;;;;4994799;28;20038;-46
2021/09/23 00:57:43;;;;;;;13.77;10.30;;;12.80;99.90;;;;;;4992957;28;20113;-47
2021/09/23 01:00:12;;;;;;;15.02;10.00;;;12.70;99.90;;;;;;4992982;28;20043;-43
2021/09/23 01:02:38;;;;;;;16.50;11.05;;;12.80;99.90;;;;;;4976758;28;20034;-44
2021/09/23 01:05:07;;;;;;;14.00;10.27;;;12.90;99.90;;;;;;4994635;28;20430;-45
2021/09/23 01:07:33;;;;;;;14.20;10.25;;;12.90;99.90;;;;;;4961055;28;20061;-48
2021/09/23 01:09:59;;;;;;;16.80;11.07;;;12.80;99.90;;;;;;4994756;28;20407;-45
2021/09/23 01:12:26;;;;;;;13.98;10.82;;;12.90;99.90;;;;;;4994656;28;20073;-46
2021/09/23 01:14:53;;;;;;;15.57;10.85;;;12.90;99.90;;;;;;4994494;28;20101;-47
2021/09/23 01:17:22;;;;;;;16.85;10.88;;;12.90;99.90;;;;;;4994828;28;20117;-48
2021/09/23 01:19:48;;;;;;;17.25;10.38;;;13.00;99.90;;;;;;4994595;28;20389;-46
2021/09/23 01:22:14;;;;;;;13.23;10.45;;;12.80;99.90;;;;;;4972926;28;20035;-48
2021/09/23 01:24:41;;;;;;;14.10;11.30;;;12.70;99.90;;;;;;4973150;28;20386;-47
2021/09/23 01:27:07;;;;;;;14.77;11.57;;;12.70;99.90;;;;;;4940856;28;20046;-46
2021/09/23 01:29:37;;;;;;;14.90;10.90;;;12.80;99.90;;;;;;4972802;28;20069;-45
2021/09/23 01:32:46;;;;;;;16.83;11.90;;;12.80;99.90;;;;;;4972980;28;20069;-46
2021/09/23 01:35:12;;;;;;;15.85;10.85;;;12.80;99.90;;;;;;4972729;28;20753;-46
2021/09/23 01:37:38;;;;;;;14.35;10.32;;;12.80;99.90;;;;;;4940615;28;20141;-47
2021/09/23 01:40:07;;;;;;;13.23;10.63;;;12.80;99.90;;;;;;4956632;28;20063;-49
2021/09/23 01:42:36;;;;;;;16.08;10.95;;;12.80;99.90;;;;;;4924539;28;20570;-45
2021/09/23 01:45:04;;;;;;;16.30;11.82;;;12.70;99.90;;;;;;4972530;28;20031;-47
2021/09/23 01:47:30;;;;;;;14.77;11.27;;;12.60;99.90;;;;;;4972575;28;20527;-47
2021/09/23 01:49:58;;;;;;;13.85;11.13;;;12.60;99.90;;;;;;4972808;28;20070;-50
2021/09/23 01:52:24;;;;;;;14.63;10.85;;;12.60;99.90;;;;;;4976103;28;20093;-43
2021/09/23 01:54:49;;;;;;;19.65;10.68;;;12.70;99.90;;;;;;4994102;28;20038;-47
2021/09/23 01:57:16;;;;;;;14.52;11.25;;;12.60;99.90;;;;;;4976069;28;20058;-50
2021/09/23 01:59:44;;;;;;;14.68;10.98;;;12.60;99.90;;;;;;4994017;28;20026;-44
2021/09/23 02:02:10;;;;;;;12.93;10.18;;;12.60;99.90;;;;;;4943503;28;20035;-47
2021/09/23 02:04:35;;;;;;;15.13;10.27;;;12.50;99.90;;;;;;4993983;28;20022;-43
2021/09/23 02:07:03;;;;;;;18.35;12.43;;;12.50;99.90;;;;;;4995041;28;20073;-46
2021/09/23 02:09:32;;;;;;;17.98;11.57;;;12.50;99.90;;;;;;4998140;28;20106;-47
2021/09/23 02:11:59;;;;;;;18.85;12.90;;;12.50;99.90;;;;;;4980548;28;20050;-48
2021/09/23 02:14:25;;;;;;;16.65;12.10;;;12.40;99.90;;;;;;4997790;28;20042;-46
2021/09/23 02:16:51;;;;;;;20.00;13.15;;;12.40;99.90;;;;;;4995897;28;20390;-47
2021/09/23 02:19:16;;;;;;;16.58;12.95;;;12.40;99.90;;;;;;4997786;28;20513;-45
2021/09/23 02:21:45;;;;;;;20.35;12.82;;;12.40;99.90;;;;;;4998005;28;20041;-46
2021/09/23 02:24:10;;;;;;;19.13;12.50;;;12.40;99.90;;;;;;4997587;28;20513;-43
2021/09/23 02:26:36;;;;;;;16.85;13.10;;;12.40;99.90;;;;;;4997694;28;20030;-49
2021/09/23 02:29:02;;;;;;;16.38;12.52;;;12.40;99.90;;;;;;4997730;28;20030;-48
2021/09/23 02:31:28;;;;;;;18.63;12.23;;;12.20;99.90;;;;;;4997509;28;20041;-47
2021/09/23 02:33:53;;;;;;;19.65;12.15;;;12.20;99.90;;;;;;4997828;28;20053;-47
2021/09/23 02:36:19;;;;;;;20.08;13.80;;;12.00;99.90;;;;;;4997398;28;20053;-47
2021/09/23 02:38:46;;;;;;;21.42;13.65;;;11.90;99.90;;;;;;4997576;28;20038;-47
2021/09/23 02:41:11;;;;;;;18.38;13.55;;;12.00;99.90;;;;;;4979428;28;20046;-49
2021/09/23 02:43:37;;;;;;;21.90;13.65;;;11.80;99.90;;;;;;4947176;28;20121;-45
2021/09/23 02:46:03;;;;;;;21.23;12.77;;;11.90;99.90;;;;;;4979219;28;20121;-46
2021/09/23 02:48:29;;;;;;;20.00;13.48;;;11.90;99.90;;;;;;4995357;28;20131;-45
2021/09/23 02:50:54;;;;;;;23.27;14.25;;;11.90;99.90;;;;;;4979101;28;20038;-49
2021/09/23 02:53:20;;;;;;;21.88;12.88;;;12.00;99.90;;;;;;4995256;28;20038;-46
2021/09/23 02:55:46;;;;;;;23.30;13.65;;;12.00;99.90;;;;;;4997113;28;20474;-48
2021/09/23 02:58:12;;;;;;;24.58;14.85;;;12.00;99.90;;;;;;4997096;28;20026;-47
2021/09/23 03:00:37;;;;;;;24.17;15.13;;;12.00;99.90;;;;;;4997004;28;20085;-47
2021/09/23 03:03:04;;;;;;;23.35;14.55;;;11.90;99.90;;;;;;4997114;28;20036;-49
2021/09/23 03:05:29;;;;;;;24.88;15.38;;;11.90;99.90;;;;;;4996840;28;20394;-46
2021/09/23 03:07:55;;;;;;;23.05;14.75;;;11.90;99.90;;;;;;4996901;28;20034;-50
2021/09/23 03:10:21;;;;;;;23.00;15.38;;;11.90;99.90;;;;;;4996920;28;20030;-49
2021/09/23 03:12:47;;;;;;;22.77;13.82;;;11.80;99.90;;;;;;4978903;28;20038;-51
2021/09/23 03:15:13;;;;;;;25.20;15.30;;;11.70;99.90;;;;;;4978871;28;20046;-46
2021/09/23 03:17:38;;;;;;;21.85;14.55;;;11.70;99.90;;;;;;4946281;28;20069;-51
2021/09/23 03:20:05;;;;;;;18.85;14.48;;;11.50;99.90;;;;;;4996781;28;20113;-46
2021/09/23 03:22:31;;;;;;;22.52;14.65;;;11.60;99.90;;;;;;4996686;28;20495;-44
2021/09/23 03:24:56;;;;;;;20.88;14.10;;;11.70;99.90;;;;;;4996579;28;20157;-49
2021/09/23 03:27:22;;;;;;;24.08;15.93;;;11.70;99.90;;;;;;4994716;28;20038;-49
2021/09/23 03:29:50;;;;;;;21.83;15.48;;;11.80;99.90;;;;;;4994752;28;20030;-46
2021/09/23 03:32:16;;;;;;;27.98;15.40;;;11.90;99.90;;;;;;4978572;28;20039;-45
2021/09/23 03:34:42;;;;;;;22.13;15.60;;;11.90;99.90;;;;;;4996345;28;20133;-48
2021/09/23 03:37:07;;;;;;;24.90;16.15;;;11.90;99.90;;;;;;4996575;28;20027;-48
2021/09/23 03:39:33;;;;;;;24.55;15.77;;;12.00;99.90;;;;;;4996400;28;20034;-47
2021/09/23 03:41:59;;;;;;;28.17;16.65;;;12.00;99.90;;;;;;4996272;28;20026;-45
2021/09/23 03:44:25;;;;;;;26.50;16.80;;;12.00;99.90;;;;;;5010784;28;20039;-46
2021/09/23 03:46:55;;;;;;;24.55;17.00;;;12.00;99.90;;;;;;4994521;28;20030;-46
2021/09/23 03:49:21;;;;;;;30.00;17.48;;;12.10;99.90;;;;;;4979006;28;20058;-49
2021/09/23 03:51:47;;;;;;;26.08;17.42;;;12.00;99.90;;;;;;4995987;28;20026;-47
2021/09/23 03:54:13;;;;;;;33.92;18.73;;;11.80;99.90;;;;;;4994337;28;20394;-45
2021/09/23 03:56:38;;;;;;;29.88;19.17;;;11.90;99.90;;;;;;4996104;28;20057;-47
2021/09/23 03:59:04;;;;;;;32.38;19.92;;;11.90;99.90;;;;;;4996234;28;20146;-46
2021/09/23 04:01:30;;;;;;;30.60;19.48;;;11.90;99.90;;;;;;4995945;28;20026;-47
2021/09/23 04:03:56;;;;;;;38.17;20.27;;;12.00;99.90;;;;;;5004785;28;20486;-47
2021/09/23 04:06:21;;;;;;;33.85;20.80;;;12.00;99.90;;;;;;5013896;28;20034;-49
2021/09/23 04:08:49;;;;;;;33.22;20.95;;;12.10;99.90;;;;;;5014441;28;20489;-46
2021/09/23 04:11:24;;;;;;;38.22;22.30;;;12.10;99.90;;;;;;4997337;28;20500;-46
2021/09/23 04:13:50;;;;;;;35.47;22.45;;;12.00;99.90;;;;;;5015188;28;20026;-49
2021/09/23 04:16:15;;;;;;;35.60;24.08;;;12.00;99.90;;;;;;4997066;28;20041;-48
2021/09/23 04:18:41;;;;;;;35.67;23.50;;;12.00;99.90;;;;;;4964630;28;20141;-45
2021/09/23 04:21:07;;;;;;;38.65;22.98;;;11.80;99.90;;;;;;4996863;28;20482;-48
2021/09/23 04:23:33;;;;;;;38.97;23.95;;;11.90;99.90;;;;;;5015129;28;20045;-48
2021/09/23 04:25:58;;;;;;;40.97;23.58;;;11.80;99.90;;;;;;5014156;28;20092;-48
2021/09/23 04:28:24;;;;;;;35.40;24.88;;;11.80;99.90;;;;;;5015000;28;20034;-44
2021/09/23 04:30:50;;;;;;;35.92;24.38;;;11.70;99.90;;;;;;5010597;28;20026;-48
2021/09/23 04:33:15;;;;;;;35.25;22.52;;;11.60;99.90;;;;;;4977083;28;20550;-49
2021/09/23 04:35:41;;;;;;;44.47;26.52;;;11.70;99.90;;;;;;4963625;28;20053;-47
2021/09/23 04:38:07;;;;;;;36.72;23.48;;;11.70;99.90;;;;;;4996565;28;20081;-49
2021/09/23 04:40:33;;;;;;;42.33;26.08;;;11.90;99.90;;;;;;5014206;28;20018;-48
2021/09/23 04:43:01;;;;;;;39.92;24.80;;;12.00;99.90;;;;;;5005931;28;20463;-48
2021/09/23 04:45:27;;;;;;;41.45;25.00;;;12.10;99.90;;;;;;4997916;28;20366;-46
2021/09/23 04:47:52;;;;;;;40.53;24.80;;;12.00;99.90;;;;;;4998663;28;20046;-44
2021/09/23 04:50:18;;;;;;;41.28;25.40;;;11.90;99.90;;;;;;4998879;28;20125;-48
2021/09/23 04:52:44;;;;;;;42.22;25.42;;;12.00;99.90;;;;;;4998106;28;20375;-49
2021/09/23 04:55:10;;;;;;;40.85;24.80;;;12.00;99.90;;;;;;4977211;28;20442;-52
2021/09/23 04:57:36;;;;;;;38.10;24.70;;;12.10;99.90;;;;;;4995045;28;20022;-47
2021/09/23 05:00:04;;;;;;;44.75;24.88;;;12.10;99.90;;;;;;4994838;28;20038;-48
2021/09/23 05:02:31;;;;;;;38.55;24.00;;;12.20;99.90;;;;;;4994851;28;20023;-46
2021/09/23 05:04:58;;;;;;;39.53;24.00;;;12.30;99.90;;;;;;4994706;28;20474;-48
2021/09/23 05:07:24;;;;;;;39.75;25.67;;;12.20;99.90;;;;;;4995039;28;20089;-51
2021/09/23 05:09:51;;;;;;;39.15;24.63;;;12.30;99.90;;;;;;4994766;28;20474;-46
2021/09/23 05:12:17;;;;;;;36.75;23.00;;;12.30;99.90;;;;;;4945027;28;20062;-47
2021/09/23 05:14:42;;;;;;;32.53;23.23;;;12.20;99.90;;;;;;4999643;28;20567;-48
2021/09/23 05:17:08;;;;;;;39.92;24.88;;;12.10;99.90;;;;;;5014574;28;20030;-49
2021/09/23 05:19:34;;;;;;;35.40;24.85;;;12.00;99.90;;;;;;5014097;28;20465;-46
2021/09/23 05:21:59;;;;;;;37.80;23.90;;;12.10;99.90;;;;;;5014069;28;20030;-48
2021/09/23 05:24:25;;;;;;;32.88;23.70;;;12.20;99.90;;;;;;5012445;28;20034;-46
2021/09/23 05:26:51;;;;;;;34.60;24.83;;;12.30;99.90;;;;;;5014020;28;20030;-50
2021/09/23 05:29:17;;;;;;;40.72;25.85;;;12.50;99.90;;;;;;5014002;28;20029;-47
2021/09/23 05:31:42;;;;;;;40.08;26.67;;;12.60;99.90;;;;;;5014034;28;20030;-48
2021/09/23 05:34:08;;;;;;;39.08;27.45;;;12.70;99.90;;;;;;4963235;28;20041;-48
2021/09/23 05:36:34;;;;;;;37.47;24.95;;;12.90;99.90;;;;;;5002618;28;20450;-50
2021/09/23 05:39:00;;;;;;;37.35;25.33;;;12.90;99.90;;;;;;5011346;28;20057;-48
2021/09/23 05:41:26;;;;;;;34.15;22.77;;;13.00;99.90;;;;;;5009921;28;20038;-48
2021/09/23 05:43:52;;;;;;;36.88;23.83;;;13.10;99.90;;;;;;5013051;28;20107;-46
2021/09/23 05:46:17;;;;;;;38.88;24.48;;;13.10;99.90;;;;;;4997517;28;20526;-48
2021/09/23 05:48:43;;;;;;;34.85;23.40;;;13.10;99.90;;;;;;4992388;28;20134;-48
2021/09/23 05:51:09;;;;;;;33.03;23.67;;;13.00;99.90;;;;;;5006073;28;20030;-49
2021/09/23 05:53:35;;;;;;;32.95;23.15;;;13.00;99.90;;;;;;4996034;28;20041;-45
2021/09/23 05:56:01;;;;;;;34.78;24.20;;;13.00;99.90;;;;;;4995865;28;20034;-48
2021/09/23 05:58:27;;;;;;;34.33;25.17;;;12.90;99.90;;;;;;4995754;28;20086;-48
2021/09/23 06:00:53;;;;;;;34.65;25.23;;;13.10;99.90;;;;;;5013957;28;20053;-45
2021/09/23 06:03:19;;;;;;;37.25;25.77;;;13.30;99.90;;;;;;5013810;28;20148;-49
2021/09/23 06:05:44;;;;;;;25.13;19.58;;;13.30;99.90;;;;;;4963072;28;20092;-47
2021/09/23 06:08:10;;;;;;;31.55;20.55;;;13.30;99.90;;;;;;5007302;28;20129;-47
2021/09/23 06:10:36;;;;;;;26.65;20.42;;;13.30;99.90;;;;;;4995899;28;20045;-50
2021/09/23 06:13:02;;;;;;;35.90;22.13;;;13.50;99.90;;;;;;5011742;28;20034;-48
2021/09/23 06:15:28;;;;;;;26.40;19.63;;;13.70;99.90;;;;;;5013597;28;20470;-45
2021/09/23 06:17:54;;;;;;;26.23;18.45;;;14.00;99.90;;;;;;5013674;28;20037;-46
2021/09/23 06:20:20;;;;;;;21.20;18.08;;;13.70;99.90;;;;;;5013563;28;20034;-49
2021/09/23 06:22:46;;;;;;;25.88;18.63;;;13.60;99.90;;;;;;5013552;28;20026;-46
2021/09/23 06:25:12;;;;;;;24.65;18.95;;;13.60;99.90;;;;;;5013709;28;20037;-50
2021/09/23 06:27:38;;;;;;;21.05;17.35;;;13.70;99.90;;;;;;4995317;28;20088;-49
2021/09/23 06:30:05;;;;;;;24.33;17.98;;;14.10;99.90;;;;;;5013503;28;20042;-47
2021/09/23 06:32:31;;;;;;;20.55;17.13;;;14.00;99.90;;;;;;5011777;28;20057;-46
2021/09/23 06:34:56;;;;;;;19.08;15.93;;;14.20;99.90;;;;;;4995194;28;20490;-46
2021/09/23 06:37:22;;;;;;;19.17;15.88;;;14.40;99.90;;;;;;5007952;28;20037;-46
2021/09/23 06:39:48;;;;;;;18.80;15.88;;;14.60;99.90;;;;;;5006436;28;20022;-46
2021/09/23 06:42:16;;;;;;;18.90;16.52;;;14.60;99.90;;;;;;4980769;28;20046;-49
2021/09/23 06:44:43;;;;;;;21.17;16.45;;;14.50;99.90;;;;;;4993775;28;20402;-46
2021/09/23 06:47:09;;;;;;;21.60;15.75;;;14.30;99.90;;;;;;4993836;28;20555;-45
2021/09/23 06:49:35;;;;;;;20.27;16.10;;;14.30;99.90;;;;;;4993677;28;20398;-47
2021/09/23 06:52:01;;;;;;;20.08;16.13;;;14.40;99.90;;;;;;4939863;28;20038;-46
2021/09/23 06:54:30;;;;;;;19.38;15.95;;;14.90;99.90;;;;;;4975208;28;20061;-50
2021/09/23 06:56:55;;;;;;;17.33;15.30;;;15.20;99.90;;;;;;4975717;28;20142;-47
2021/09/23 06:59:21;;;;;;;19.15;15.88;;;15.30;99.90;;;;;;4984542;28;20039;-48
2021/09/23 07:01:48;;;;;;;18.52;15.70;;;15.70;99.90;;;;;;4950453;28;20038;-47
2021/09/23 07:04:15;;;;;;;18.50;15.75;;;15.80;99.90;;;;;;4986649;28;20501;-47
2021/09/23 07:06:41;;;;;;;18.63;15.50;;;15.90;99.90;;;;;;4985350;28;20050;-47
2021/09/23 07:09:10;;;;;;;16.83;15.02;;;15.90;99.90;;;;;;4986329;28;20042;-47
2021/09/23 07:11:36;;;;;;;23.52;16.90;;;16.00;99.90;;;;;;4943525;28;20129;-46
2021/09/23 07:14:03;;;;;;;20.23;16.17;;;15.80;99.90;;;;;;4984633;28;20030;-47
2021/09/23 07:16:29;;;;;;;18.58;16.08;;;15.80;99.90;;;;;;4980791;28;20153;-48
2021/09/23 07:18:54;;;;;;;18.80;15.50;;;15.90;99.90;;;;;;4976978;28;20082;-48
2021/09/23 07:21:20;;;;;;;17.83;15.00;;;15.80;99.90;;;;;;4975430;28;20030;-46
2021/09/23 07:23:46;;;;;;;17.75;15.57;;;16.30;99.90;;;;;;4997592;28;20073;-47
2021/09/23 07:26:12;;;;;;;16.35;13.93;;;16.90;99.90;;;;;;4979198;28;20046;-48
2021/09/23 07:28:38;;;;;;;17.00;14.00;;;17.20;99.90;;;;;;4946457;28;20506;-47
2021/09/23 07:31:03;;;;;;;17.08;15.00;;;17.50;99.90;;;;;;4997191;28;20030;-44
2021/09/23 07:33:30;;;;;;;17.63;13.57;;;18.20;99.90;;;;;;4994798;28;20042;-47
2021/09/23 07:35:56;;;;;;;14.98;12.50;;;17.90;99.90;;;;;;4978429;28;20137;-45
2021/09/23 07:38:21;;;;;;;18.05;14.25;;;17.10;99.90;;;;;;4995466;28;20061;-46
2021/09/23 07:40:48;;;;;;;15.45;13.85;;;17.00;99.90;;;;;;4996442;28;20033;-44
2021/09/23 07:43:13;;;;;;;15.50;13.13;;;17.30;99.90;;;;;;4996538;28;20034;-48
2021/09/23 07:45:39;;;;;;;17.67;15.45;;;17.10;99.90;;;;;;4978606;28;20117;-45
2021/09/23 07:48:05;;;;;;;16.17;13.70;;;17.10;99.90;;;;;;4978345;28;20054;-45
2021/09/23 07:50:31;;;;;;;16.48;14.23;;;16.90;99.90;;;;;;4996229;28;20080;-43
2021/09/23 07:52:57;;;;;;;16.13;13.60;;;17.20;99.90;;;;;;4978242;28;20038;-45
2021/09/23 07:55:23;;;;;;;12.68;8.48;;;17.50;99.90;;;;;;4994607;28;20371;-45
2021/09/23 07:57:49;;;;;;;16.50;12.88;;;16.60;99.90;;;;;;4996484;28;20173;-43
2021/09/23 08:00:15;;;;;;;13.88;12.02;;;16.20;99.90;;;;;;4994577;28;20593;-44
2021/09/23 08:02:41;;;;;;;14.40;12.50;;;16.40;99.90;;;;;;4978473;28;20038;-45
2021/09/23 08:05:07;;;;;;;18.08;11.88;;;16.90;99.90;;;;;;4995257;28;20037;-47
2021/09/23 08:07:33;;;;;;;13.18;11.70;;;17.70;99.90;;;;;;4977994;28;20050;-47
2021/09/23 08:09:58;;;;;;;13.07;11.68;;;18.70;99.90;;;;;;4978097;28;20035;-45
2021/09/23 08:12:24;;;;;;;14.32;11.00;;;19.70;99.90;;;;;;4994333;28;20062;-48
2021/09/23 08:14:50;;;;;;;13.05;10.80;;;19.70;99.90;;;;;;4945944;28;20061;-46
2021/09/23 08:17:17;;;;;;;13.38;11.15;;;19.70;99.90;;;;;;4995885;28;20389;-47
2021/09/23 08:19:43;;;;;;;24.00;12.40;;;19.00;99.90;;;;;;4995864;28;20038;-47
2021/09/23 08:22:09;;;;;;;13.50;11.30;;;18.80;99.90;;;;;;4995756;28;20430;-45
2021/09/23 08:24:35;;;;;;;13.55;12.15;;;19.30;99.90;;;;;;4995593;28;20023;-44
2021/09/23 08:27:01;;;;;;;12.60;10.48;;;18.70;99.90;;;;;;4993941;28;20037;-47
2021/09/23 08:29:27;;;;;;;16.33;11.70;;;18.30;99.90;;;;;;4995446;28;20041;-47
2021/09/23 08:31:53;;;;;;;11.52;10.32;;;18.00;99.90;;;;;;4977945;28;20117;-45
2021/09/23 08:34:19;;;;;;;10.05;9.02;;;17.50;99.90;;;;;;4977368;28;20042;-45
2021/09/23 08:36:45;;;;;;;14.23;10.63;;;17.20;99.90;;;;;;4977455;28;20562;-48
2021/09/23 08:39:12;;;;;;;12.38;8.50;;;18.00;99.90;;;;;;4994999;28;20509;-45
2021/09/23 08:41:38;;;;;;;8.88;7.97;;;18.70;99.90;;;;;;4945614;28;20034;-48
2021/09/23 08:44:04;;;;;;;8.23;6.22;;;18.60;99.90;;;;;;4995232;28;20398;-46
2021/09/23 08:46:34;;;;;;;6.30;5.70;;;19.70;99.90;;;;;;4945149;28;20038;-47
2021/09/23 08:49:05;;;;;;;7.22;6.53;;;20.00;98.20;;;;;;4995021;28;20038;-46
2021/09/23 08:51:31;;;;;;;7.22;6.38;;;20.60;97.30;;;;;;4995080;28;20034;-48
2021/09/23 08:53:57;;;;;;;7.47;6.72;;;20.60;96.70;;;;;;4995327;28;20034;-46
2021/09/23 08:56:23;;;;;;;7.20;6.50;;;20.90;96.20;;;;;;4994958;28;20033;-45
2021/09/23 08:58:49;;;;;;;7.57;6.53;;;20.00;96.00;;;;;;4976878;28;20042;-47
2021/09/23 09:01:18;;;;;;;7.47;6.72;;;19.90;95.60;;;;;;4995010;28;20106;-47
2021/09/23 09:03:45;;;;;;;6.97;6.28;;;21.00;95.60;;;;;;4995045;28;20045;-46
2021/09/23 09:06:13;;;;;;;8.13;6.75;;;20.70;94.40;;;;;;4994772;28;20034;-48
2021/09/23 09:08:40;;;;;;;9.10;7.65;;;20.60;95.10;;;;;;4993115;28;20042;-47
2021/09/23 09:11:09;;;;;;;7.70;6.22;;;20.10;95.00;;;;;;4995652;28;20133;-46
2021/09/23 09:13:40;;;;;;;9.93;7.53;;;19.70;95.20;;;;;;4994942;28;20382;-48
2021/09/23 09:16:22;;;;;;;7.77;6.87;;;20.50;96.90;;;;;;4995106;28;20029;-45
2021/09/23 09:18:50;;;;;;;7.97;6.47;;;21.90;95.50;;;;;;4994898;28;20081;-47
2021/09/23 09:21:20;;;;;;;6.60;5.80;;;22.40;92.90;;;;;;4990197;28;20050;-45
2021/09/23 09:23:51;;;;;;;5.63;4.50;;;22.60;91.20;;;;;;4994839;28;20031;-44
2021/09/23 09:26:26;;;;;;;8.00;5.80;;;22.20;90.20;;;;;;4994913;28;20034;-46
2021/09/23 09:29:00;;;;;;;6.15;5.55;;;21.90;90.40;;;;;;4994491;28;20125;-46
2021/09/23 09:31:27;;;;;;;7.10;5.50;;;22.00;91.10;;;;;;4994644;28;20030;-47
2021/09/23 09:33:55;;;;;;;8.02;6.95;;;22.90;90.70;;;;;;4992863;28;20491;-46
2021/09/23 09:36:38;;;;;;;8.30;6.63;;;;;;;;;;4993795;28;20057;-48
2021/09/23 09:39:10;;;;;;;8.32;7.03;;;25.10;95.80;;;;;;4994393;28;20034;-49
2021/09/23 09:41:37;;;;;;;;;;;23.40;86.70;;;;;;4976761;28;20122;-45
2021/09/23 09:44:08;;;;;;;8.63;4.90;;;22.70;87.00;;;;;;4994280;28;19968;-46
2021/09/23 09:46:51;;;;;;;15.70;6.75;;;21.90;86.90;;;;;;4994236;28;20041;-48
2021/09/23 09:49:22;;;;;;;6.53;5.93;;;21.70;87.80;;;;;;4993937;28;20419;-46
2021/09/23 09:51:54;;;;;;;6.35;5.75;;;21.20;88.40;;;;;;4994119;28;20117;-48
2021/09/23 09:54:20;;;;;;;7.22;6.47;;;21.20;89.80;;;;;;4994049;28;20054;-48
2021/09/23 09:56:56;;;;;;;6.50;5.85;;;;;;;;;;4994868;28;20030;-47
2021/09/23 09:59:22;;;;;;;7.78;5.30;;;19.80;91.00;;;;;;4994317;28;20053;-48
2021/09/23 10:01:51;;;;;;;9.65;5.53;;;19.40;91.00;;;;;;4972637;28;20066;-48
2021/09/23 10:04:19;;;;;;;6.57;4.97;;;19.60;91.30;;;;;;4972623;28;20075;-46
2021/09/23 10:06:45;;;;;;;5.05;4.55;;;19.60;90.60;;;;;;4973042;28;20078;-46
2021/09/23 10:09:13;;;;;;;4.90;4.32;;;19.60;90.90;;;;;;4971945;28;20066;-46
2021/09/23 10:11:41;;;;;;;7.38;4.72;;;19.70;90.60;;;;;;4972224;28;20407;-46
2021/09/23 10:14:09;;;;;;;7.78;5.88;;;19.70;91.70;;;;;;4972343;28;20058;-46
2021/09/23 10:16:35;;;;;;;6.43;5.78;;;19.80;92.20;;;;;;4972549;28;20064;-48
2021/09/23 10:19:01;;;;;;;8.32;6.70;;;19.80;92.10;;;;;;4972427;28;20558;-45
2021/09/23 10:21:27;;;;;;;6.57;5.78;;;19.90;92.90;;;;;;4972413;28;20130;-45
2021/09/23 10:23:54;;;;;;;6.00;5.00;;;19.80;92.00;;;;;;4972436;28;20118;-46
2021/09/23 10:26:24;;;;;;;7.10;6.40;;;20.10;91.70;;;;;;4972319;28;20027;-44
2021/09/23 10:28:51;;;;;;;7.68;5.75;;;;;;;;;;4974589;28;20066;-45
2021/09/23 10:31:22;;;;;;;8.30;6.28;;;21.30;96.40;;;;;;4976319;28;20031;-48
2021/09/23 10:33:48;;;;;;;6.40;5.32;;;;;;;;;;4996052;28;20382;-44
2021/09/23 10:36:15;;;;;;;6.97;5.88;;;;;;;;;;4997866;28;20053;-46
2021/09/23 10:38:43;;;;;;;6.05;4.50;;;23.40;90.20;;;;;;4996072;28;20030;-47
2021/09/23 10:41:10;;;;;;;6.32;4.60;;;24.20;85.60;;;;;;4995796;28;20386;-49
2021/09/23 10:43:38;;;;;;;5.47;4.50;;;23.30;82.90;;;;;;4997596;28;20034;-47
2021/09/23 10:46:04;;;;;;;5.35;4.85;;;22.50;83.90;;;;;;4997924;28;20041;-45
2021/09/23 10:48:35;;;;;;;6.03;5.43;;;22.50;83.00;;;;;;4997189;28;20044;-48
2021/09/23 10:51:03;;;;;;;5.97;5.30;;;22.20;85.50;;;;;;4997408;28;20058;-47
2021/09/23 10:53:34;;;;;;;11.88;8.32;;;21.10;87.40;;;;;;4997293;28;20033;-47
2021/09/23 10:56:09;;;;;;;14.07;9.50;;;20.60;91.30;;;;;;4997217;28;20435;-47
2021/09/23 10:58:35;;;;;;;15.40;9.50;;;19.90;89.30;;;;;;4997338;28;20553;-47
2021/09/23 11:01:03;;;;;;;13.70;9.52;;;19.70;91.50;;;;;;4979038;28;20035;-46
2021/09/23 11:03:39;;;;;;;14.93;10.65;;;19.50;91.10;;;;;;4997110;28;20116;-44
2021/09/23 11:06:12;;;;;;;11.90;7.80;;;19.40;97.40;;;;;;4996952;28;20031;-48
2021/09/23 11:08:40;;;;;;;7.93;7.15;;;19.30;96.70;;;;;;4997054;28;20042;-47
2021/09/23 11:11:08;;;;;;;13.43;10.07;;;19.20;94.70;;;;;;4979123;28;20058;-45
2021/09/23 11:13:37;;;;;;;22.20;16.23;;;19.50;94.20;;;;;;4996995;28;20038;-47
2021/09/23 11:16:04;;;;;;;9.38;7.30;;;;;;;;;;4997132;28;20034;-47
2021/09/23 11:18:31;;;;;;;4.50;3.88;;;20.50;98.00;;;;;;4995134;28;20030;-47
2021/09/23 11:20:57;;;;;;;5.78;4.35;;;;;;;;;;4998481;28;20038;-45
2021/09/23 11:23:23;;;;;;;5.38;4.65;;;20.50;99.90;;;;;;5007952;28;20029;-45
2021/09/23 11:25:50;;;;;;;5.68;5.07;;;20.90;93.30;;;;;;5004617;28;20108;-45
2021/09/23 11:28:22;;;;;;;5.80;4.60;;;20.70;92.30;;;;;;5004306;28;20041;-43
2021/09/23 11:30:52;;;;;;;7.15;4.38;;;20.90;90.30;;;;;;5005473;28;20141;-48
2021/09/23 11:33:21;;;;;;;5.45;4.57;;;20.90;90.40;;;;;;5006727;28;20072;-52
2021/09/23 11:35:47;;;;;;;5.93;5.00;;;20.50;90.30;;;;;;5010305;28;20060;-44
2021/09/23 11:38:18;;;;;;;6.97;5.30;;;20.20;89.20;;;;;;5007241;28;20117;-47
2021/09/23 11:40:46;;;;;;;5.38;4.10;;;20.40;90.20;;;;;;5009029;28;20080;-49
2021/09/23 11:43:14;;;;;;;6.22;4.85;;;20.40;90.10;;;;;;4959069;28;20045;-50
2021/09/23 11:45:45;;;;;;;9.32;4.53;;;20.50;90.20;;;;;;4985254;28;20035;-51
2021/09/23 11:48:14;;;;;;;4.72;4.05;;;20.60;88.80;;;;;;4985245;28;20042;-53
2021/09/23 11:50:52;;;;;;;4.68;3.53;;;20.80;86.30;;;;;;4961859;28;20035;-50
2021/09/23 11:53:31;;;;;;;4.40;3.42;;;20.90;85.70;;;;;;4974245;28;20042;-46
2021/09/23 11:56:12;;;;;;;4.60;4.10;;;21.10;86.60;;;;;;4987509;28;20065;-50
2021/09/23 11:58:39;;;;;;;5.75;4.75;;;20.90;90.00;;;;;;4998748;28;20491;-47
2021/09/23 12:01:06;;;;;;;7.50;4.70;;;20.60;90.40;;;;;;4986821;28;20026;-54
2021/09/23 12:03:43;;;;;;;4.55;4.07;;;20.20;89.50;;;;;;4991181;28;20034;-53
2021/09/23 12:06:11;;;;;;;4.20;3.67;;;20.20;89.00;;;;;;4986877;28;20118;-55
2021/09/23 12:08:37;;;;;;;5.85;4.00;;;20.00;91.20;;;;;;4962262;28;20132;-52
2021/09/23 12:11:06;;;;;;;5.05;3.90;;;19.70;91.90;;;;;;5003049;28;20029;-45
2021/09/23 12:13:45;;;;;;;8.45;5.30;;;19.40;89.60;;;;;;5003190;28;20042;-51
2021/09/23 12:16:17;;;;;;;7.45;4.78;;;19.10;90.00;;;;;;5014061;28;20030;-48
2021/09/23 12:18:45;;;;;;;5.28;4.63;;;19.10;90.20;;;;;;5020808;28;20498;-51
2021/09/23 12:21:13;;;;;;;6.75;5.03;;;19.00;90.50;;;;;;5019727;28;20038;-46
2021/09/23 12:23:40;;;;;;;9.57;6.13;;;19.00;90.30;;;;;;5022135;28;20033;-54
2021/09/23 12:26:25;;;;;;;6.32;4.95;;;19.00;90.30;;;;;;5021272;28;20030;-48
2021/09/23 12:28:56;;;;;;;5.60;4.50;;;19.20;90.40;;;;;;5019402;28;20391;-47
2021/09/23 12:31:41;;;;;;;5.85;4.95;;;19.90;90.30;;;;;;5015103;28;20032;-55
2021/09/23 12:34:09;;;;;;;7.68;5.03;;;20.40;90.40;;;;;;4977146;28;20034;-47
2021/09/23 12:36:43;;;;;;;5.68;4.70;;;20.50;87.50;;;;;;5007988;28;20075;-53
2021/09/23 12:39:16;;;;;;;9.30;5.35;;;20.60;87.10;;;;;;5013900;28;20465;-50